Gilbert, Minnesota
Current Conditions -  °F | °C
As of 4:31 AM on Thursday 18 Dec 2014 (Local Time) from KEVM Reporting Station
Light Snow Light Snow  
Wind Chill: 12°   Ceiling: 1300
Heat Index: 12°   Visibility: 10mi
Dew Point: 10°   Wind: 0mph
Humidity: 92%   Direction: NA
Pressure: 30.3"   Gusts: NA
Location:  47.49°N, 92.46°W
Report Text: KEVM 181031Z AUTO 00000KT 10SM -SN OVC013 M11/M12 A3030 RMK AO2
Loading
Personal Weather Stations






























Interactive Weather Map New forecast layout! Learn more

10-Day Weather Forecast

Advertisements
Track Severe Weather on mobile